Recent Observations

This page presents the weather data from the last 72 hours at 30 minute intervals.

Last updated at 2:30:34 am AEST on Mon 22 July 2024.

Last 24 hours
Date/Time(AEST) Temp. ( °C) Dew Point ( °C) Relative Humidity (%) Apparent Temp. ( °C) Wind Direction Wind Speed (kph) Wind Gust (kph) Wind Speed (kts) Wind Gust (kts) MSL Pressure (hPa) Rain since midnight (mm)
22/07 2:30 am 6.8 3.5 79 5.4 CALM 0 0 0 0 1022.4 0.0
22/07 2:00 am 7.1 3.4 78 5.7 CALM 0 0 0 0 1022.4 0.0
22/07 1:30 am 7.6 3.6 76 6.2 CALM 0 0 0 0 1022.4 0.0
22/07 1:00 am 8.2 3.8 74 6.9 CALM 0 0 0 0 1022.1 0.0
22/07 12:30 am 9.1 4.0 71 7.8 CALM 0 0 0 0 1022.1 0.0
22/07 12:00 am 10.2 4.2 66 8.9 CALM 0 0 0 0 1021.9 0.0
21/07 11:30 pm 11.0 4.3 63 9 SSW 1 6 1 3 1021.8 0.0
21/07 11:00 pm 11.7 4.5 61 9.1 SSW 2 8 1 4 1021.9 0.0
21/07 10:30 pm 12.2 4.4 59 8.2 SSW 4 14 2 8 1021.9 0.0
21/07 10:00 pm 11.8 4.3 60 9.8 SSW 1 4 1 2 1021.5 0.0
21/07 9:30 pm 11.0 4.2 63 5.5 WSW 6 10 3 5 1021.3 0.0
21/07 9:00 pm 11.2 4.1 62 9.9 CALM 0 0 0 0 1021.1 0.0
21/07 8:30 pm 13.1 4.0 54 11.8 CALM 0 0 0 0 1021.0 0.0
21/07 8:00 pm 14.3 3.7 49 12.9 SE 0 4 0 2 1020.7 0.0
21/07 7:30 pm 15.2 3.3 45 12.4 SW 2 6 1 3 1020.2 0.0
21/07 7:00 pm 15.7 3.3 44 8 WSW 9 17 5 9 1019.7 0.0
21/07 6:30 pm 16.0 3.1 42 6.8 WSW 11 19 6 10 1019.4 0.0
21/07 6:00 pm 16.6 2.9 40 10.9 W 6 14 3 8 1019.3 0.0
21/07 5:30 pm 17.1 2.9 39 10 WSW 8 15 4 8 1019.1 0.0
21/07 5:00 pm 18.1 3.1 37 11.7 WSW 7 15 4 8 1018.8 0.0
21/07 4:30 pm 19.1 3.7 36 13.5 WSW 6 14 3 8 1018.3 0.0
21/07 4:00 pm 20.1 3.8 34 13.1 SW 8 14 4 8 1017.8 0.0
21/07 3:30 pm 21.0 4.3 33 13.4 WSW 9 19 5 10 1017.5 0.0
21/07 3:00 pm 21.3 4.5 33 12.4 W 11 21 6 11 1017.1 0.0
21/07 2:30 pm 21.4 3.9 32 13.1 WSW 10 15 5 8 1017.0 0.0
21/07 2:00 pm 21.6 3.9 31 11.8 W 12 25 6 13 1016.8 0.0
21/07 1:30 pm 21.1 3.0 30 14.7 NW 7 19 4 10 1016.8 0.0
21/07 1:00 pm 20.5 4.4 35 13.7 NW 8 21 4 11 1016.9 0.0
21/07 12:30 pm 19.7 4.9 38 14.4 NW 6 19 3 10 1017.5 0.0
21/07 12:00 pm 19.2 5.3 40 -4.3 W 32 41 17 22 1017.8 0.0
21/07 11:30 am 18.9 5.5 41 3.8 WSW 24 25 13 13 1019.4 0.0
21/07 11:00 am 18.3 6.1 45 0.6 W 24 25 13 13 1019.4 0.0
21/07 10:30 am 17.7 5.8 46 5.6 WSW 16 29 9 16 1019.3 0.0
21/07 10:00 am 17.2 5.2 45 7 WSW 13 25 7 13 1019.7 0.0
21/07 9:30 am 15.8 4.8 48 4.8 WSW 14 35 8 19 1019.3 0.0
21/07 9:00 am 15.1 4.8 50 3.4 WSW 15 29 8 16 1019.4 0.0
21/07 8:30 am 14.2 4.6 52 3.2 WSW 14 29 8 16 1019.1 0.0
21/07 8:00 am 13.1 4.1 54 2 WSW 14 27 8 15 1019.0 0.0
21/07 7:30 am 11.9 3.5 56 4.2 WSW 9 21 5 11 1018.8 0.0
21/07 7:00 am 11.4 3.2 57 1.5 WSW 12 19 6 10 1018.3 0.0
21/07 6:30 am 11.2 3.2 58 -2.2 W 17 25 9 13 1017.5 0.0
21/07 6:00 am 11.4 3.3 58 3.7 WSW 9 17 5 9 1017.4 0.0
21/07 5:30 am 11.7 3.4 57 -0.9 W 16 23 9 12 1016.8 0.0
21/07 5:00 am 11.9 3.6 57 3.5 WSW 10 19 5 10 1016.4 0.0
21/07 4:30 am 12.2 3.6 55 3.8 WSW 10 23 5 12 1016.1 0.0
21/07 4:00 am 12.5 3.6 54 3.4 W 11 19 6 10 1015.6 0.0
21/07 3:30 am 12.7 3.7 54 5 WSW 9 25 5 13 1015.8 0.0
21/07 3:00 am 12.9 3.6 53 0.3 W 16 17 9 9 1015.9 0.0
24 to 48 hours ago
Date/Time(AEST) Temp. °C Dew Point °C Relative Humidity % Appararent Temp. °C Wind Direction Wind Speed (kph) Wind Gust (kph) Wind Speed (kts) Wind Gust (kts) MSL Pressure (hPa) Rain since midnight (mm)
21/07 2:30 am 13.2 3.6 52 -3.6 W 22 25 12 13 1015.8 0.0
21/07 2:00 am 13.1 3.4 52 1.2 WSW 15 27 8 15 1016.1 0.0
21/07 1:30 am 13.4 3.3 50 4.9 WSW 10 17 5 9 1016.3 0.0
21/07 1:00 am 13.6 3.6 51 9.4 WSW 4 14 2 8 1016.2 0.0
21/07 12:30 am 14.2 3.6 49 7.2 WSW 8 23 4 12 1016.3 0.0
21/07 12:00 am 14.6 4.1 49 8.4 WSW 7 10 4 5 1016.0 0.0
20/07 11:30 pm 14.8 4.4 50 11.5 W 3 10 2 5 1016.1 0.0
20/07 11:00 pm 15.1 4.6 49 9 WNW 7 23 4 12 1016.3 0.0
20/07 10:30 pm 15.3 4.7 49 8.5 W 8 21 4 11 1016.2 0.0
20/07 10:00 pm 16.1 4.7 47 13.5 W 2 12 1 6 1016.2 0.0
20/07 9:30 pm 16.7 5.3 47 10 WSW 8 27 4 15 1015.6 0.0
20/07 9:00 pm 16.8 5.7 48 10.9 WSW 7 29 4 16 1015.5 0.0
20/07 8:30 pm 17.1 5.8 47 8.4 WSW 11 17 6 9 1015.4 0.0
20/07 8:00 pm 17.4 6.2 48 10.2 W 9 17 5 9 1015.3 0.0
20/07 7:30 pm 17.4 6.2 48 13.7 WSW 4 15 2 8 1014.8 0.0
20/07 7:00 pm 14.3 5.6 56 10.5 WSW 4 15 2 8 1014.2 0.0
20/07 6:30 pm 14.9 6.6 57 14.1 WNW 0 6 0 3 1013.6 0.0
20/07 6:00 pm 16.5 6.1 50 15.6 W 0 4 0 2 1013.1 0.0
20/07 5:30 pm 18.7 5.9 43 17.8 WNW 0 4 0 2 1012.8 0.0
20/07 5:00 pm 20.9 5.4 36 18.4 NW 2 6 1 3 1012.3 0.0
20/07 4:30 pm 21.7 5.0 34 15 W 8 15 4 8 1012.1 0.0
20/07 4:00 pm 22.5 4.5 31 10.8 W 15 25 8 13 1012.0 0.0
20/07 3:30 pm 23.6 4.9 30 16.9 W 8 19 4 10 1011.9 0.0
20/07 3:00 pm 23.6 4.9 30 16.9 WNW 8 27 4 15 1011.7 0.0
20/07 2:30 pm 23.4 4.7 30 10.3 WSW 17 25 9 13 1011.6 0.0
20/07 2:00 pm 23.3 4.8 30 8.8 W 19 27 10 15 1011.9 0.0
20/07 1:30 pm 23.3 4.9 30 8.8 W 19 29 10 16 1012.0 0.0
20/07 1:00 pm 23.2 5.7 32 8.9 WSW 19 31 10 17 1012.3 0.0
20/07 12:30 pm 23.4 6.8 34 7.2 W 22 31 12 17 1012.2 0.0
20/07 12:00 pm 22.5 7.6 38 7.2 WSW 21 39 11 21 1012.9 0.0
20/07 11:30 am 21.8 7.2 39 6.5 WSW 18 27 10 15 1014.2 0.0
20/07 11:00 am 21.6 8.2 42 8.6 WSW 18 27 10 15 1014.2 0.0
20/07 10:30 am 21.3 7.4 41 7.4 W 19 31 10 17 1015.0 0.0
20/07 10:00 am 20.6 7.8 44 12.4 W 11 31 6 17 1015.4 0.0
20/07 9:30 am 19.4 7.9 48 12.7 WNW 9 17 5 9 1016.0 0.0
20/07 9:00 am 18.1 7.7 50 14.7 W 4 17 2 9 1016.1 0.0
20/07 8:30 am 16.2 8.8 62 16 NNW 0 4 0 2 1015.9 0.0
20/07 8:00 am 9.8 7.3 84 9.2 NE 0 4 0 2 1015.8 0.0
20/07 7:30 am 6.9 5.3 90 5.9 N 0 2 0 1 1015.6 0.0
20/07 7:00 am 5.6 3.9 90 4.3 W 0 2 0 1 1015.3 0.0
20/07 6:30 am 5.6 3.8 88 4.2 W 0 2 0 1 1015.0 0.0
20/07 6:00 am 5.9 3.9 87 4.6 CALM 0 0 0 0 1014.7 0.0
20/07 5:30 am 6.6 4.3 86 5.4 CALM 0 0 0 0 1014.6 0.0
20/07 5:00 am 7.2 4.7 84 6 CALM 0 0 0 0 1014.4 0.0
20/07 4:30 am 7.8 5.1 83 6.7 WNW 0 2 0 1 1014.4 0.0
20/07 4:00 am 7.8 5.1 83 6.7 WNW 0 4 0 2 1014.5 0.0
20/07 3:30 am 8.1 5.1 82 6.3 WNW 1 4 1 2 1014.8 0.0
20/07 3:00 am 8.7 5.4 80 7.7 WNW 0 2 0 1 1015.0 0.0
48 to 72 hours ago
Date/Time(AEST) Temp. °C Dew Point °C Relative Humidity % Appararent Temp. °C Wind Direction Wind Speed (kph) Wind Gust (kph) Wind Speed (kts) Wind Gust (kts) MSL Pressure (hPa) Rain since midnight (mm)
20/07 2:30 am 9.8 5.8 76 8.8 WNW 0 2 0 1 1015.0 0.0
20/07 2:00 am 11.3 6.5 72 8.4 W 3 14 2 8 1015.3 0.0
20/07 1:30 am 10.1 6.3 78 3.7 WSW 8 10 4 5 1015.4 0.0
20/07 1:00 am 9.7 5.8 77 8.8 W 0 2 0 1 1015.7 0.0
20/07 12:30 am 10.5 6.3 75 6.8 W 4 8 2 4 1015.9 0.0
20/07 12:00 am 10.2 6.4 77 7.3 WSW 3 8 2 4 1016.1 0.0
19/07 11:30 pm 8.9 5.7 80 7.2 WSW 1 8 1 4 1016.3 0.0
19/07 11:00 pm 9.4 5.6 77 8.4 CALM 0 0 0 0 1016.7 0.0
19/07 10:30 pm 10.7 6.1 74 9.8 CALM 0 0 0 0 1016.8 0.0
19/07 10:00 pm 11.8 6.5 70 11 CALM 0 0 0 0 1016.8 0.0
19/07 9:30 pm 12.4 6.7 68 11.6 CALM 0 0 0 0 1016.8 0.0
19/07 9:00 pm 13.2 7.1 67 10.4 W 3 8 2 4 1016.6 0.0
19/07 8:30 pm 13.6 6.9 64 10.1 W 4 10 2 5 1016.8 0.0
19/07 8:00 pm 12.3 6.7 69 10.9 WSW 1 8 1 4 1016.6 0.0
19/07 7:30 pm 12.0 6.9 71 11.3 W 0 2 0 1 1016.3 0.0
19/07 7:00 pm 12.8 7.3 69 11.5 W 1 6 1 3 1016.3 0.0
19/07 6:30 pm 13.8 7.1 64 10.3 WSW 4 15 2 8 1016.2 0.0
19/07 6:00 pm 14.3 7.6 64 13.7 CALM 0 0 0 0 1016.2 0.0
19/07 5:30 pm 16.4 7.6 56 15.8 CALM 0 0 0 0 1015.9 0.0
19/07 5:00 pm 18.0 6.9 48 17.3 WNW 0 6 0 3 1015.9 0.0
19/07 4:30 pm 18.8 7.3 47 14 WSW 6 19 3 10 1015.8 0.0
19/07 4:00 pm 19.7 7.3 45 14.2 SW 7 21 4 11 1015.5 0.0
19/07 3:30 pm 20.5 8.1 45 14.5 WNW 8 19 4 10 1015.2 0.0
19/07 3:00 pm 20.4 7.6 44 10.8 WSW 13 31 7 17 1015.0 0.0
19/07 2:30 pm 20.7 7.7 43 11.1 WSW 13 23 7 12 1015.4 0.0
19/07 2:00 pm 20.8 8.4 45 14.8 WNW 8 19 4 10 1015.4 0.0
19/07 1:30 pm 21.4 8.7 44 17.6 WSW 5 14 3 8 1015.6 0.0
19/07 1:00 pm 20.5 8.3 46 11.1 W 13 19 7 10 1016.4 0.0
19/07 12:30 pm 20.0 8.4 47 11.2 W 12 21 6 11 1017.0 0.0
19/07 12:00 pm 19.4 8.2 48 6.4 WSW 18 19 10 10 1017.3 0.0
19/07 11:30 am 19.3 8.4 49 14 WSW 8 14 4 8 1018.4 0.0
19/07 11:00 am 18.6 8.3 51 12.6 W 8 14 4 8 1018.4 0.0
19/07 10:30 am 17.6 8.4 55 10.2 WSW 10 19 5 10 1019.5 0.0
19/07 10:00 am 16.9 8.3 57 7.4 WSW 13 25 7 13 1019.7 0.0
19/07 9:30 am 16.5 8.2 58 11.2 WSW 7 14 4 8 1019.6 0.0
19/07 9:00 am 15.3 8.0 62 8.5 WSW 9 17 5 9 1019.2 0.0
19/07 8:30 am 13.8 8.1 68 13.3 W 0 2 0 1 1019.1 0.0
19/07 8:00 am 9.4 6.8 84 8.7 CALM 0 0 0 0 1019.1 0.0
19/07 7:30 am 7.7 5.4 86 6.7 CALM 0 0 0 0 1018.9 0.0
19/07 7:00 am 7.2 4.5 83 6 CALM 0 0 0 0 1018.2 0.0
19/07 6:30 am 8.5 4.9 78 7.4 CALM 0 0 0 0 1017.8 0.0
19/07 6:00 am 9.9 5.7 75 6.8 WSW 3 8 2 4 1017.7 0.0
19/07 5:30 am 9.6 5.6 76 7.9 WSW 1 10 1 5 1017.1 0.0
19/07 5:00 am 10.2 5.9 75 5.8 W 5 15 3 8 1016.7 0.0
19/07 4:30 am 10.3 6.1 75 6.6 SSW 4 8 2 4 1016.5 0.0
19/07 4:00 am 10.3 6.1 75 8.7 WSW 1 10 1 5 1016.6 0.0
19/07 3:30 am 10.6 6.2 74 5.5 WSW 6 15 3 8 1016.8 0.0
19/07 3:00 am 10.3 6.2 76 4.5 SW 7 17 4 9 1016.4 0.0